sensor_id;sensor_type;location;lat;lon;timestamp;pressure;altitude;pressure_sealevel;temperature;humidity
63652;BME280;49801;37.536;-122.304;2023-01-26T00:00:25;102469.00;;;17.73;32.12
63652;BME280;49801;37.536;-122.304;2023-01-26T00:00:51;102458.38;;;17.70;31.79
63652;BME280;49801;37.536;-122.304;2023-01-26T00:01:23;102474.13;;;17.76;31.88
63652;BME280;49801;37.536;-122.304;2023-01-26T00:01:49;102474.97;;;17.77;31.62
63652;BME280;49801;37.536;-122.304;2023-01-26T00:02:15;102468.63;;;17.76;31.90
63652;BME280;49801;37.536;-122.304;2023-01-26T00:02:41;102453.63;;;17.64;31.89
63652;BME280;49801;37.536;-122.304;2023-01-26T00:03:08;102467.97;;;17.74;31.71
63652;BME280;49801;37.536;-122.304;2023-01-26T00:03:34;102467.97;;;17.74;31.92
63652;BME280;49801;37.536;-122.304;2023-01-26T00:04:00;102469.81;;;17.74;31.65
63652;BME280;49801;37.536;-122.304;2023-01-26T00:04:26;102463.84;;;17.70;31.66
63652;BME280;49801;37.536;-122.304;2023-01-26T00:04:52;102465.56;;;17.71;31.88
63652;BME280;49801;37.536;-122.304;2023-01-26T00:05:18;102470.56;;;17.68;31.90
63652;BME280;49801;37.536;-122.304;2023-01-26T00:05:45;102475.88;;;17.69;31.66
63652;BME280;49801;37.536;-122.304;2023-01-26T00:06:13;102470.38;;;17.69;32.13
63652;BME280;49801;37.536;-122.304;2023-01-26T00:06:39;102475.91;;;17.61;32.30
63652;BME280;49801;37.536;-122.304;2023-01-26T00:07:05;102471.09;;;17.63;32.42
63652;BME280;49801;37.536;-122.304;2023-01-26T00:07:31;102468.69;;;17.60;32.45
63652;BME280;49801;37.536;-122.304;2023-01-26T00:07:58;102475.53;;;17.64;32.46
63652;BME280;49801;37.536;-122.304;2023-01-26T00:08:24;102456.38;;;17.64;32.47
63652;BME280;49801;37.536;-122.304;2023-01-26T00:08:52;102456.41;;;17.56;33.14
63652;BME280;49801;37.536;-122.304;2023-01-26T00:09:19;102468.69;;;17.60;32.76
63652;BME280;49801;37.536;-122.304;2023-01-26T00:09:45;102466.69;;;17.54;32.59
63652;BME280;49801;37.536;-122.304;2023-01-26T00:10:11;102463.94;;;17.54;32.76
63652;BME280;49801;37.536;-122.304;2023-01-26T00:10:39;102454.41;;;17.41;32.58
63652;BME280;49801;37.536;-122.304;2023-01-26T00:11:07;102463.63;;;17.40;32.54
63652;BME280;49801;37.536;-122.304;2023-01-26T00:11:33;102471.66;;;17.50;32.63
63652;BME280;49801;37.536;-122.304;2023-01-26T00:12:00;102461.22;;;17.46;32.96
63652;BME280;49801;37.536;-122.304;2023-01-26T00:12:26;102453.38;;;17.34;33.04
63652;BME280;49801;37.536;-122.304;2023-01-26T00:12:52;102454.09;;;17.28;33.13
63652;BME280;49801;37.536;-122.304;2023-01-26T00:13:18;102466.06;;;17.35;33.28
63652;BME280;49801;37.536;-122.304;2023-01-26T00:13:44;102477.84;;;17.36;33.23
63652;BME280;49801;37.536;-122.304;2023-01-26T00:14:10;102467.78;;;17.36;33.12
63652;BME280;49801;37.536;-122.304;2023-01-26T00:14:37;102463.66;;;17.32;33.36
63652;BME280;49801;37.536;-122.304;2023-01-26T00:15:15;102460.59;;;17.27;34.01
63652;BME280;49801;37.536;-122.304;2023-01-26T00:15:41;102460.75;;;17.25;33.96
63652;BME280;49801;37.536;-122.304;2023-01-26T00:16:10;102467.13;;;17.26;34.02
63652;BME280;49801;37.536;-122.304;2023-01-26T00:16:36;102456.50;;;17.23;33.86
63652;BME280;49801;37.536;-122.304;2023-01-26T00:17:03;102470.34;;;17.30;34.01
63652;BME280;49801;37.536;-122.304;2023-01-26T00:17:29;102468.81;;;17.27;33.84
63652;BME280;49801;37.536;-122.304;2023-01-26T00:17:55;102473.25;;;17.28;33.67
63652;BME280;49801;37.536;-122.304;2023-01-26T00:18:22;102466.06;;;17.27;33.05
63652;BME280;49801;37.536;-122.304;2023-01-26T00:18:48;102468.81;;;17.27;33.16
63652;BME280;49801;37.536;-122.304;2023-01-26T00:19:14;102469.84;;;17.26;33.21
63652;BME280;49801;37.536;-122.304;2023-01-26T00:19:40;102469.84;;;17.26;33.62
63652;BME280;49801;37.536;-122.304;2023-01-26T00:20:07;102469.84;;;17.26;33.49
63652;BME280;49801;37.536;-122.304;2023-01-26T00:20:33;102464.06;;;17.21;33.54
63652;BME280;49801;37.536;-122.304;2023-01-26T00:21:01;102450.88;;;17.16;33.66
63652;BME280;49801;37.536;-122.304;2023-01-26T00:21:27;102463.84;;;17.22;33.34
63652;BME280;49801;37.536;-122.304;2023-01-26T00:21:53;102465.75;;;17.22;33.80
63652;BME280;49801;37.536;-122.304;2023-01-26T00:22:19;102462.16;;;17.21;33.36
63652;BME280;49801;37.536;-122.304;2023-01-26T00:22:46;102460.25;;;17.22;33.39
63652;BME280;49801;37.536;-122.304;2023-01-26T00:23:12;102459.75;;;17.18;33.50
63652;BME280;49801;37.536;-122.304;2023-01-26T00:23:38;102460.59;;;17.19;33.77
63652;BME280;49801;37.536;-122.304;2023-01-26T00:24:04;102458.75;;;17.19;33.90
63652;BME280;49801;37.536;-122.304;2023-01-26T00:24:30;102442.53;;;17.01;33.40
63652;BME280;49801;37.536;-122.304;2023-01-26T00:24:56;102458.25;;;17.08;33.16
63652;BME280;49801;37.536;-122.304;2023-01-26T00:25:23;102463.56;;;17.09;33.11
63652;BME280;49801;37.536;-122.304;2023-01-26T00:25:49;102454.47;;;17.09;33.09
63652;BME280;49801;37.536;-122.304;2023-01-26T00:26:18;102455.84;;;17.13;32.98
63652;BME280;49801;37.536;-122.304;2023-01-26T00:26:45;102460.97;;;17.16;33.13
63652;BME280;49801;37.536;-122.304;2023-01-26T00:27:11;102462.66;;;17.17;33.57
63652;BME280;49801;37.536;-122.304;2023-01-26T00:27:37;102461.31;;;17.13;33.87
63652;BME280;49801;37.536;-122.304;2023-01-26T00:28:04;102456.53;;;17.06;34.03
63652;BME280;49801;37.536;-122.304;2023-01-26T00:28:30;102460.81;;;17.09;33.52
63652;BME280;49801;37.536;-122.304;2023-01-26T00:28:56;102459.09;;;17.08;34.02
63652;BME280;49801;37.536;-122.304;2023-01-26T00:29:24;102409.19;;;16.81;34.21
63652;BME280;49801;37.536;-122.304;2023-01-26T00:29:50;102457.25;;;17.00;34.24
63652;BME280;49801;37.536;-122.304;2023-01-26T00:30:17;102462.34;;;17.03;34.29
63652;BME280;49801;37.536;-122.304;2023-01-26T00:30:43;102450.06;;;16.99;34.37
63652;BME280;49801;37.536;-122.304;2023-01-26T00:31:12;102458.44;;;17.06;34.22
63652;BME280;49801;37.536;-122.304;2023-01-26T00:31:39;102463.72;;;17.08;33.98
63652;BME280;49801;37.536;-122.304;2023-01-26T00:32:05;102460.81;;;17.09;33.95
63652;BME280;49801;37.536;-122.304;2023-01-26T00:32:34;102465.41;;;17.09;33.85
63652;BME280;49801;37.536;-122.304;2023-01-26T00:33:00;102462.00;;;17.06;33.95
63652;BME280;49801;37.536;-122.304;2023-01-26T00:33:27;102455.53;;;17.08;33.52
63652;BME280;49801;37.536;-122.304;2023-01-26T00:33:55;102456.19;;;17.10;33.33
63652;BME280;49801;37.536;-122.304;2023-01-26T00:34:21;102459.28;;;17.06;33.46
63652;BME280;49801;37.536;-122.304;2023-01-26T00:34:47;102456.19;;;17.10;33.53
63652;BME280;49801;37.536;-122.304;2023-01-26T00:35:13;102449.38;;;17.05;33.47
63652;BME280;49801;37.536;-122.304;2023-01-26T00:35:40;102461.31;;;17.13;33.65
63652;BME280;49801;37.536;-122.304;2023-01-26T00:36:09;102416.56;;;16.89;33.84
63652;BME280;49801;37.536;-122.304;2023-01-26T00:36:35;102456.03;;;17.11;34.27
63652;BME280;49801;37.536;-122.304;2023-01-26T00:37:02;102446.31;;;17.00;34.38
63652;BME280;49801;37.536;-122.304;2023-01-26T00:37:28;102451.06;;;17.06;34.24
63652;BME280;49801;37.536;-122.304;2023-01-26T00:37:54;102463.56;;;17.09;34.23
63652;BME280;49801;37.536;-122.304;2023-01-26T00:38:20;102463.72;;;17.08;34.30
63652;BME280;49801;37.536;-122.304;2023-01-26T00:38:47;102448.00;;;17.01;33.87
63652;BME280;49801;37.536;-122.304;2023-01-26T00:39:13;102456.38;;;17.00;33.85
63652;BME280;49801;37.536;-122.304;2023-01-26T00:39:39;102461.00;;;16.99;34.18
63652;BME280;49801;37.536;-122.304;2023-01-26T00:40:06;102464.75;;;16.98;34.38
63652;BME280;49801;37.536;-122.304;2023-01-26T00:40:32;102454.84;;;16.89;34.78
63652;BME280;49801;37.536;-122.304;2023-01-26T00:40:58;102465.81;;;16.89;34.37
63652;BME280;49801;37.536;-122.304;2023-01-26T00:41:24;102456.75;;;16.89;34.48
63652;BME280;49801;37.536;-122.304;2023-01-26T00:42:10;102464.97;;;16.89;34.85
63652;BME280;49801;37.536;-122.304;2023-01-26T00:42:38;102460.34;;;16.89;34.92
63652;BME280;49801;37.536;-122.304;2023-01-26T00:43:05;102411.78;;;16.58;34.47
63652;BME280;49801;37.536;-122.304;2023-01-26T00:43:31;102449.03;;;16.76;34.80
63652;BME280;49801;37.536;-122.304;2023-01-26T00:43:58;102450.75;;;16.77;34.42
63652;BME280;49801;37.536;-122.304;2023-01-26T00:44:24;102460.50;;;16.87;34.31
63652;BME280;49801;37.536;-122.304;2023-01-26T00:44:50;102466.13;;;16.86;34.39
63652;BME280;49801;37.536;-122.304;2023-01-26T00:45:17;102462.38;;;16.87;34.29
63652;BME280;49801;37.536;-122.304;2023-01-26T00:45:43;102450.03;;;16.83;34.23
63652;BME280;49801;37.536;-122.304;2023-01-26T00:46:09;102458.59;;;16.88;34.74
63652;BME280;49801;37.536;-122.304;2023-01-26T00:46:36;102464.78;;;16.90;34.64
63652;BME280;49801;37.536;-122.304;2023-01-26T00:47:03;102462.06;;;16.90;34.90
63652;BME280;49801;37.536;-122.304;2023-01-26T00:47:29;102465.81;;;16.89;34.93
63652;BME280;49801;37.536;-122.304;2023-01-26T00:47:55;102460.34;;;16.89;34.97
63652;BME280;49801;37.536;-122.304;2023-01-26T00:48:21;102463.06;;;16.89;35.16
63652;BME280;49801;37.536;-122.304;2023-01-26T00:48:47;102461.34;;;16.88;35.68
63652;BME280;49801;37.536;-122.304;2023-01-26T00:49:13;102462.72;;;16.84;35.64
63652;BME280;49801;37.536;-122.304;2023-01-26T00:49:39;102470.56;;;16.79;35.23
63652;BME280;49801;37.536;-122.304;2023-01-26T00:50:06;102453.13;;;16.72;34.95
63652;BME280;49801;37.536;-122.304;2023-01-26T00:50:33;102428.19;;;16.50;34.96
63652;BME280;49801;37.536;-122.304;2023-01-26T00:50:59;102459.63;;;16.71;34.75
63652;BME280;49801;37.536;-122.304;2023-01-26T00:51:25;102464.91;;;16.72;35.05
63652;BME280;49801;37.536;-122.304;2023-01-26T00:51:51;102468.69;;;16.71;34.99
63652;BME280;49801;37.536;-122.304;2023-01-26T00:52:17;102460.66;;;16.69;34.89
63652;BME280;49801;37.536;-122.304;2023-01-26T00:52:43;102460.66;;;16.69;34.86
63652;BME280;49801;37.536;-122.304;2023-01-26T00:53:10;102472.44;;;16.70;34.76
63652;BME280;49801;37.536;-122.304;2023-01-26T00:53:36;102473.28;;;16.71;34.70
63652;BME280;49801;37.536;-122.304;2023-01-26T00:54:02;102470.56;;;16.71;34.79
63652;BME280;49801;37.536;-122.304;2023-01-26T00:54:29;102464.41;;;16.68;34.55
63652;BME280;49801;37.536;-122.304;2023-01-26T00:54:55;102461.69;;;16.68;34.68
63652;BME280;49801;37.536;-122.304;2023-01-26T00:55:21;102461.69;;;16.68;34.72
63652;BME280;49801;37.536;-122.304;2023-01-26T00:55:47;102441.84;;;16.58;34.91
63652;BME280;49801;37.536;-122.304;2023-01-26T00:56:13;102466.81;;;16.63;35.15
63652;BME280;49801;37.536;-122.304;2023-01-26T00:56:39;102465.13;;;16.62;35.11
63652;BME280;49801;37.536;-122.304;2023-01-26T00:57:05;102451.78;;;16.51;35.41
63652;BME280;49801;37.536;-122.304;2023-01-26T00:57:32;102467.50;;;16.57;35.26
63652;BME280;49801;37.536;-122.304;2023-01-26T00:57:59;102458.25;;;16.50;35.43
63652;BME280;49801;37.536;-122.304;2023-01-26T00:58:25;102460.97;;;16.50;35.62
63652;BME280;49801;37.536;-122.304;2023-01-26T00:58:51;102464.75;;;16.49;35.95
63652;BME280;49801;37.536;-122.304;2023-01-26T00:59:18;102447.31;;;16.34;35.98
63652;BME280;49801;37.536;-122.304;2023-01-26T00:59:44;102462.69;;;16.43;36.29
63652;BME280;49801;37.536;-122.304;2023-01-26T01:00:10;102465.75;;;16.40;36.20
63652;BME280;49801;37.536;-122.304;2023-01-26T01:00:41;102470.72;;;16.36;36.09
63652;BME280;49801;37.536;-122.304;2023-01-26T01:01:07;102466.47;;;16.34;36.11
63652;BME280;49801;37.536;-122.304;2023-01-26T01:01:33;102468.50;;;16.31;36.36
63652;BME280;49801;37.536;-122.304;2023-01-26T01:02:00;102453.44;;;16.19;36.64
63652;BME280;49801;37.536;-122.304;2023-01-26T01:02:27;102461.31;;;16.22;37.14
63652;BME280;49801;37.536;-122.304;2023-01-26T01:02:53;102449.00;;;16.10;37.32
63652;BME280;49801;37.536;-122.304;2023-01-26T01:03:21;102463.53;;;16.19;37.56
63652;BME280;49801;37.536;-122.304;2023-01-26T01:03:47;102461.28;;;16.14;37.70
63652;BME280;49801;37.536;-122.304;2023-01-26T01:04:15;102466.22;;;16.10;37.62
63652;BME280;49801;37.536;-122.304;2023-01-26T01:04:41;102471.19;;;16.07;37.29
63652;BME280;49801;37.536;-122.304;2023-01-26T01:05:08;102473.22;;;16.05;37.11
63652;BME280;49801;37.536;-122.304;2023-01-26T01:05:34;102468.78;;;16.04;36.91
63652;BME280;49801;37.536;-122.304;2023-01-26T01:06:00;102468.09;;;16.02;36.91
63652;BME280;49801;37.536;-122.304;2023-01-26T01:06:26;102470.13;;;16.00;36.94
63652;BME280;49801;37.536;-122.304;2023-01-26T01:06:52;102466.72;;;15.98;37.07
63652;BME280;49801;37.536;-122.304;2023-01-26T01:07:19;102469.78;;;15.94;37.21
63652;BME280;49801;37.536;-122.304;2023-01-26T01:07:45;102461.75;;;15.93;37.27
63652;BME280;49801;37.536;-122.304;2023-01-26T01:08:11;102461.06;;;15.91;37.69
63652;BME280;49801;37.536;-122.304;2023-01-26T01:08:37;102450.28;;;15.81;38.01
63652;BME280;49801;37.536;-122.304;2023-01-26T01:09:03;102465.31;;;15.85;38.80
63652;BME280;49801;37.536;-122.304;2023-01-26T01:09:29;102422.16;;;15.54;38.84
63652;BME280;49801;37.536;-122.304;2023-01-26T01:09:55;102465.13;;;15.79;38.88
63652;BME280;49801;37.536;-122.304;2023-01-26T01:10:22;102471.03;;;15.74;39.43
63652;BME280;49801;37.536;-122.304;2023-01-26T01:10:49;102465.91;;;15.71;39.45
63652;BME280;49801;37.536;-122.304;2023-01-26T01:11:15;102443.50;;;15.51;39.70
63652;BME280;49801;37.536;-122.304;2023-01-26T01:11:41;102472.03;;;15.65;39.78
63652;BME280;49801;37.536;-122.304;2023-01-26T01:12:08;102468.63;;;15.63;39.97
63652;BME280;49801;37.536;-122.304;2023-01-26T01:12:34;102457.81;;;15.53;40.21
63652;BME280;49801;37.536;-122.304;2023-01-26T01:13:01;102471.16;;;15.56;40.24
63652;BME280;49801;37.536;-122.304;2023-01-26T01:13:27;102474.22;;;15.53;40.43
63652;BME280;49801;37.536;-122.304;2023-01-26T01:13:53;102466.81;;;15.45;40.52
63652;BME280;49801;37.536;-122.304;2023-01-26T01:14:19;102468.84;;;15.43;40.49
63652;BME280;49801;37.536;-122.304;2023-01-26T01:14:45;102474.00;;;15.46;40.60
63652;BME280;49801;37.536;-122.304;2023-01-26T01:15:12;102472.63;;;15.42;40.75
63652;BME280;49801;37.536;-122.304;2023-01-26T01:15:38;102481.97;;;15.40;40.90
63652;BME280;49801;37.536;-122.304;2023-01-26T01:16:09;102478.56;;;15.37;40.95
63652;BME280;49801;37.536;-122.304;2023-01-26T01:16:36;102469.84;;;15.34;41.11
63652;BME280;49801;37.536;-122.304;2023-01-26T01:17:02;102483.50;;;15.34;41.28
63652;BME280;49801;37.536;-122.304;2023-01-26T01:17:28;102488.25;;;15.32;41.57
63652;BME280;49801;37.536;-122.304;2023-01-26T01:17:54;102481.41;;;15.28;41.81
63652;BME280;49801;37.536;-122.304;2023-01-26T01:18:20;102483.44;;;15.26;42.13
63652;BME280;49801;37.536;-122.304;2023-01-26T01:18:47;102483.75;;;15.23;42.31
63652;BME280;49801;37.536;-122.304;2023-01-26T01:19:14;102491.25;;;15.21;42.46
63652;BME280;49801;37.536;-122.304;2023-01-26T01:19:40;102491.56;;;15.17;42.34
63652;BME280;49801;37.536;-122.304;2023-01-26T01:20:08;102489.16;;;15.14;42.10
63652;BME280;49801;37.536;-122.304;2023-01-26T01:20:35;102489.97;;;15.07;42.11
63652;BME280;49801;37.536;-122.304;2023-01-26T01:21:13;102489.81;;;15.08;42.23
63652;BME280;49801;37.536;-122.304;2023-01-26T01:21:39;102488.91;;;14.99;42.47
63652;BME280;49801;37.536;-122.304;2023-01-26T01:22:05;102487.72;;;15.02;42.65
63652;BME280;49801;37.536;-122.304;2023-01-26T01:22:33;102489.75;;;15.00;43.14
63652;BME280;49801;37.536;-122.304;2023-01-26T01:22:59;102488.38;;;14.96;43.25
63652;BME280;49801;37.536;-122.304;2023-01-26T01:23:28;102474.44;;;14.81;43.45
63652;BME280;49801;37.536;-122.304;2023-01-26T01:23:54;102490.88;;;14.89;43.54
63652;BME280;49801;37.536;-122.304;2023-01-26T01:24:21;102471.47;;;14.74;43.73
63652;BME280;49801;37.536;-122.304;2023-01-26T01:24:47;102495.94;;;14.84;43.78
63652;BME280;49801;37.536;-122.304;2023-01-26T01:25:13;102469.41;;;14.68;43.82
63652;BME280;49801;37.536;-122.304;2023-01-26T01:25:39;102486.84;;;14.75;43.91
63652;BME280;49801;37.536;-122.304;2023-01-26T01:26:07;102494.31;;;14.73;44.07
63652;BME280;49801;37.536;-122.304;2023-01-26T01:26:34;102490.88;;;14.71;44.37
63652;BME280;49801;37.536;-122.304;2023-01-26T01:27:00;102474.06;;;14.58;44.42
63652;BME280;49801;37.536;-122.304;2023-01-26T01:27:27;102486.06;;;14.65;44.63
63652;BME280;49801;37.536;-122.304;2023-01-26T01:27:53;102491.84;;;14.62;44.46
63652;BME280;49801;37.536;-122.304;2023-01-26T01:28:19;102495.88;;;14.58;44.50
63652;BME280;49801;37.536;-122.304;2023-01-26T01:28:45;102488.69;;;14.57;44.61
63652;BME280;49801;37.536;-122.304;2023-01-26T01:29:12;102470.88;;;14.44;44.63
63652;BME280;49801;37.536;-122.304;2023-01-26T01:29:39;102484.19;;;14.48;45.26
63652;BME280;49801;37.536;-122.304;2023-01-26T01:30:05;102470.47;;;14.39;45.30
63652;BME280;49801;37.536;-122.304;2023-01-26T01:30:32;102490.94;;;14.43;45.41
63652;BME280;49801;37.536;-122.304;2023-01-26T01:30:58;102487.81;;;14.38;45.91
63652;BME280;49801;37.536;-122.304;2023-01-26T01:31:25;102464.53;;;14.26;46.09
63652;BME280;49801;37.536;-122.304;2023-01-26T01:31:51;102489.47;;;14.31;45.78
63652;BME280;49801;37.536;-122.304;2023-01-26T01:32:18;102463.75;;;14.16;45.94
63652;BME280;49801;37.536;-122.304;2023-01-26T01:32:44;102489.22;;;14.24;45.85
63652;BME280;49801;37.536;-122.304;2023-01-26T01:33:14;102473.97;;;14.14;45.79
63652;BME280;49801;37.536;-122.304;2023-01-26T01:33:40;102495.84;;;14.22;46.03
63652;BME280;49801;37.536;-122.304;2023-01-26T01:34:07;102487.97;;;14.19;46.52
63652;BME280;49801;37.536;-122.304;2023-01-26T01:34:33;102480.09;;;14.16;46.61
63652;BME280;49801;37.536;-122.304;2023-01-26T01:34:59;102496.44;;;14.16;46.61
63652;BME280;49801;37.536;-122.304;2023-01-26T01:35:25;102494.03;;;14.13;46.69
63652;BME280;49801;37.536;-122.304;2023-01-26T01:35:59;102497.06;;;14.10;46.53
63652;BME280;49801;37.536;-122.304;2023-01-26T01:36:25;102483.03;;;14.04;46.65
63652;BME280;49801;37.536;-122.304;2023-01-26T01:36:51;102481.94;;;13.97;46.56
63652;BME280;49801;37.536;-122.304;2023-01-26T01:37:18;102483.97;;;13.95;46.83
63652;BME280;49801;37.536;-122.304;2023-01-26T01:37:44;102492.84;;;13.97;46.98
63652;BME280;49801;37.536;-122.304;2023-01-26T01:38:10;102494.84;;;13.95;46.94
63652;BME280;49801;37.536;-122.304;2023-01-26T01:38:36;102492.44;;;13.92;46.88
63652;BME280;49801;37.536;-122.304;2023-01-26T01:39:02;102486.28;;;13.90;46.80
63652;BME280;49801;37.536;-122.304;2023-01-26T01:39:28;102477.41;;;13.88;46.78
63652;BME280;49801;37.536;-122.304;2023-01-26T01:39:55;102485.88;;;13.85;47.05
63652;BME280;49801;37.536;-122.304;2023-01-26T01:40:21;102488.91;;;13.82;47.38
63652;BME280;49801;37.536;-122.304;2023-01-26T01:40:47;102487.34;;;13.79;47.44
63652;BME280;49801;37.536;-122.304;2023-01-26T01:41:15;102488.34;;;13.78;47.45
63652;BME280;49801;37.536;-122.304;2023-01-26T01:41:42;102483.22;;;13.75;47.58
63652;BME280;49801;37.536;-122.304;2023-01-26T01:42:08;102477.13;;;13.63;47.54
63652;BME280;49801;37.536;-122.304;2023-01-26T01:42:34;102488.44;;;13.68;47.22
63652;BME280;49801;37.536;-122.304;2023-01-26T01:43:01;102484.97;;;13.66;47.30
63652;BME280;49801;37.536;-122.304;2023-01-26T01:43:27;102480.84;;;13.62;47.20
63652;BME280;49801;37.536;-122.304;2023-01-26T01:44:13;102487.63;;;13.58;47.36
63652;BME280;49801;37.536;-122.304;2023-01-26T01:44:41;102481.03;;;13.51;47.29
63652;BME280;49801;37.536;-122.304;2023-01-26T01:45:52;102462.63;;;13.35;47.78
63652;BME280;49801;37.536;-122.304;2023-01-26T01:46:35;102482.78;;;13.42;48.17
63652;BME280;49801;37.536;-122.304;2023-01-26T01:47:17;102463.34;;;13.27;48.49
63652;BME280;49801;37.536;-122.304;2023-01-26T01:47:57;102483.53;;;13.35;48.33
63652;BME280;49801;37.536;-122.304;2023-01-26T01:48:58;102481.66;;;13.25;48.72
63652;BME280;49801;37.536;-122.304;2023-01-26T01:49:58;102482.56;;;13.16;48.94
63652;BME280;49801;37.536;-122.304;2023-01-26T01:50:29;102482.13;;;13.11;49.23
63652;BME280;49801;37.536;-122.304;2023-01-26T01:51:01;102482.56;;;13.06;48.90
63652;BME280;49801;37.536;-122.304;2023-01-26T01:51:39;102485.75;;;13.02;49.17
63652;BME280;49801;37.536;-122.304;2023-01-26T01:52:27;102461.72;;;12.87;49.29
63652;BME280;49801;37.536;-122.304;2023-01-26T01:52:55;102484.63;;;12.94;49.07
63652;BME280;49801;37.536;-122.304;2023-01-26T01:53:30;102481.31;;;12.91;49.34
63652;BME280;49801;37.536;-122.304;2023-01-26T01:54:02;102482.63;;;12.87;49.78
63652;BME280;49801;37.536;-122.304;2023-01-26T01:55:09;102480.31;;;12.82;50.04
63652;BME280;49801;37.536;-122.304;2023-01-26T01:55:31;102485.34;;;12.77;49.90
63652;BME280;49801;37.536;-122.304;2023-01-26T01:56:00;102485.66;;;12.74;49.70
63652;BME280;49801;37.536;-122.304;2023-01-26T01:56:28;102485.78;;;12.72;49.76
63652;BME280;49801;37.536;-122.304;2023-01-26T01:56:57;102458.91;;;12.60;49.86
63652;BME280;49801;37.536;-122.304;2023-01-26T01:57:29;102485.22;;;12.69;50.12
63652;BME280;49801;37.536;-122.304;2023-01-26T01:57:58;102488.94;;;12.68;50.23
63652;BME280;49801;37.536;-122.304;2023-01-26T01:58:28;102484.81;;;12.64;50.26
63652;BME280;49801;37.536;-122.304;2023-01-26T01:58:57;102486.63;;;12.63;50.18
63652;BME280;49801;37.536;-122.304;2023-01-26T01:59:24;102486.06;;;12.60;49.99
63652;BME280;49801;37.536;-122.304;2023-01-26T01:59:56;102480.78;;;12.58;49.95
63652;BME280;49801;37.536;-122.304;2023-01-26T02:00:24;102488.09;;;12.57;50.09
63652;BME280;49801;37.536;-122.304;2023-01-26T02:00:51;102481.22;;;12.53;50.24
63652;BME280;49801;37.536;-122.304;2023-01-26T02:01:18;102480.50;;;12.51;50.39
63652;BME280;49801;37.536;-122.304;2023-01-26T02:01:44;102482.22;;;12.52;50.00
63652;BME280;49801;37.536;-122.304;2023-01-26T02:02:11;102484.22;;;12.50;50.36
63652;BME280;49801;37.536;-122.304;2023-01-26T02:02:37;102485.22;;;12.49;50.38
63652;BME280;49801;37.536;-122.304;2023-01-26T02:03:08;102473.22;;;12.42;49.96
63652;BME280;49801;37.536;-122.304;2023-01-26T02:03:45;102455.47;;;12.28;49.74
63652;BME280;49801;37.536;-122.304;2023-01-26T02:04:12;102489.22;;;12.45;49.94
63652;BME280;49801;37.536;-122.304;2023-01-26T02:04:38;102482.06;;;12.44;50.44
63652;BME280;49801;37.536;-122.304;2023-01-26T02:05:30;102483.22;;;12.42;50.16
63652;BME280;49801;37.536;-122.304;2023-01-26T02:06:06;102483.50;;;12.38;49.97
63652;BME280;49801;37.536;-122.304;2023-01-26T02:06:49;102489.22;;;12.35;49.86
63652;BME280;49801;37.536;-122.304;2023-01-26T02:07:16;102484.94;;;12.33;50.03
63652;BME280;49801;37.536;-122.304;2023-01-26T02:07:42;102484.94;;;12.33;50.10
63652;BME280;49801;37.536;-122.304;2023-01-26T02:08:10;102478.38;;;12.26;50.16
63652;BME280;49801;37.536;-122.304;2023-01-26T02:08:51;102488.91;;;12.29;50.31
63652;BME280;49801;37.536;-122.304;2023-01-26T02:09:24;102484.66;;;12.26;50.44
63652;BME280;49801;37.536;-122.304;2023-01-26T02:10:10;102493.06;;;12.23;50.29
63652;BME280;49801;37.536;-122.304;2023-01-26T02:10:46;102488.03;;;12.18;50.48
63652;BME280;49801;37.536;-122.304;2023-01-26T02:11:17;102472.88;;;12.06;50.30
63652;BME280;49801;37.536;-122.304;2023-01-26T02:11:45;102486.63;;;12.14;50.48
63652;BME280;49801;37.536;-122.304;2023-01-26T02:12:14;102488.63;;;12.12;50.48
63652;BME280;49801;37.536;-122.304;2023-01-26T02:12:42;102492.31;;;12.11;50.59
63652;BME280;49801;37.536;-122.304;2023-01-26T02:13:08;102486.91;;;12.11;50.73
63652;BME280;49801;37.536;-122.304;2023-01-26T02:13:36;102489.88;;;12.08;50.69
63652;BME280;49801;37.536;-122.304;2023-01-26T02:14:04;102489.88;;;12.08;50.48
63652;BME280;49801;37.536;-122.304;2023-01-26T02:14:32;102473.47;;;12.00;50.66
63652;BME280;49801;37.536;-122.304;2023-01-26T02:14:59;102464.41;;;11.90;50.71
63652;BME280;49801;37.536;-122.304;2023-01-26T02:15:26;102493.75;;;12.06;50.92
63652;BME280;49801;37.536;-122.304;2023-01-26T02:15:53;102461.38;;;11.83;50.82
63652;BME280;49801;37.536;-122.304;2023-01-26T02:16:19;102499.31;;;12.04;50.74
63652;BME280;49801;37.536;-122.304;2023-01-26T02:16:46;102497.59;;;12.03;50.86
63652;BME280;49801;37.536;-122.304;2023-01-26T02:17:12;102502.31;;;12.01;50.89
63652;BME280;49801;37.536;-122.304;2023-01-26T02:17:38;102490.28;;;11.94;50.77
63652;BME280;49801;37.536;-122.304;2023-01-26T02:18:05;102500.63;;;12.00;50.56
63652;BME280;49801;37.536;-122.304;2023-01-26T02:18:32;102497.72;;;11.92;50.84
63652;BME280;49801;37.536;-122.304;2023-01-26T02:18:58;102496.31;;;11.97;51.01
63652;BME280;49801;37.536;-122.304;2023-01-26T02:20:26;102501.16;;;11.94;51.13
63652;BME280;49801;37.536;-122.304;2023-01-26T02:21:05;102499.69;;;11.90;51.18
63652;BME280;49801;37.536;-122.304;2023-01-26T02:21:32;102504.38;;;11.88;51.02
63652;BME280;49801;37.536;-122.304;2023-01-26T02:22:04;102498.22;;;11.86;51.03
63652;BME280;49801;37.536;-122.304;2023-01-26T02:22:57;102498.50;;;11.82;50.98
63652;BME280;49801;37.536;-122.304;2023-01-26T02:24:27;102494.19;;;11.70;51.03